Time;durP1;ratioP1;P1;durP2;ratioP2;P2;SDS_P1;SDS_P2;PMS_P1;PMS_P2;Temp;Humidity;BMP_temperature;BMP_pressure;BME280_temperature;BME280_humidity;BME280_pressure;Samples;Min_cycle;Max_cycle;Signal;HPM_P1;HPM_P2
2021/04/27 00:00:55;;;;;;;9.70;4.80;;;5.10;81.20;;;;;;5134088;27;20046;-72
2021/04/27 00:03:21;;;;;;;13.52;4.65;;;5.10;81.30;;;;;;5135432;27;20479;-72
2021/04/27 00:05:48;;;;;;;8.88;4.45;;;5.10;81.70;;;;;;5134624;27;20031;-72
2021/04/27 00:08:13;;;;;;;12.45;5.55;;;4.90;82.00;;;;;;5134768;27;20114;-72
2021/04/27 00:10:39;;;;;;;13.43;5.35;;;4.90;82.10;;;;;;5134867;27;20040;-72
2021/04/27 00:13:05;;;;;;;12.73;5.70;;;5.00;81.70;;;;;;5134986;27;20035;-72
2021/04/27 00:15:31;;;;;;;11.55;5.63;;;5.00;81.70;;;;;;5134339;27;20114;-72
2021/04/27 00:17:57;;;;;;;12.45;5.50;;;5.00;81.70;;;;;;5135195;27;20031;-72
2021/04/27 00:20:24;;;;;;;11.13;5.32;;;5.10;81.50;;;;;;5135241;27;20424;-72
2021/04/27 00:22:51;;;;;;;16.83;5.53;;;5.10;81.20;;;;;;5133295;27;20391;-72
2021/04/27 00:25:17;;;;;;;16.23;5.75;;;5.10;81.20;;;;;;5134418;27;20069;-72
2021/04/27 00:27:47;;;;;;;16.08;6.43;;;5.10;80.90;;;;;;5134796;27;20447;-72
2021/04/27 00:30:15;;;;;;;15.02;7.30;;;5.10;81.70;;;;;;5134861;27;20471;-72
2021/04/27 00:32:40;;;;;;;12.43;6.03;;;5.20;80.80;;;;;;5134373;27;20067;-72
2021/04/27 00:35:06;;;;;;;16.50;7.57;;;5.20;80.90;;;;;;5133075;27;20066;-72
2021/04/27 00:37:32;;;;;;;16.52;8.02;;;5.20;80.60;;;;;;5134803;27;20064;-72
2021/04/27 00:39:58;;;;;;;17.92;7.45;;;5.10;80.90;;;;;;5133650;27;20043;-72
2021/04/27 00:42:35;;;;;;;15.07;7.63;;;5.10;80.90;;;;;;5134343;27;20463;-72
2021/04/27 00:45:02;;;;;;;18.38;7.88;;;5.10;81.20;;;;;;5133910;27;20031;-72
2021/04/27 00:47:28;;;;;;;16.70;8.70;;;5.00;81.20;;;;;;5134843;27;20467;-72
2021/04/27 00:49:55;;;;;;;17.90;9.48;;;5.00;81.40;;;;;;5134170;27;20031;-72
2021/04/27 00:52:21;;;;;;;16.23;9.80;;;5.00;81.50;;;;;;5134367;27;20042;-72
2021/04/27 00:54:47;;;;;;;17.27;10.02;;;5.10;81.30;;;;;;5134051;27;20038;-72
2021/04/27 00:57:13;;;;;;;17.45;8.25;;;5.00;81.60;;;;;;5134044;27;20039;-72
2021/04/27 00:59:39;;;;;;;19.58;8.77;;;4.90;81.90;;;;;;5134244;27;20043;-72
2021/04/27 01:02:06;;;;;;;14.85;7.20;;;4.90;81.70;;;;;;5134308;27;20061;-72
2021/04/27 01:04:33;;;;;;;18.27;7.65;;;5.00;81.80;;;;;;5133781;27;20475;-72
2021/04/27 01:06:59;;;;;;;18.42;7.45;;;4.90;82.00;;;;;;5134045;27;20035;-72
2021/04/27 01:09:30;;;;;;;15.48;7.68;;;4.90;81.90;;;;;;5133928;27;20042;-72
2021/04/27 01:12:06;;;;;;;15.13;7.35;;;4.80;82.10;;;;;;5134463;28;20081;-72
2021/04/27 01:14:38;;;;;;;12.60;6.13;;;4.80;82.50;;;;;;5132440;27;20402;-72
2021/04/27 01:17:10;;;;;;;14.70;7.38;;;4.80;82.30;;;;;;5133962;27;20437;-72
2021/04/27 01:19:50;;;;;;;20.10;7.30;;;4.90;82.60;;;;;;5134140;27;20043;-72
2021/04/27 01:22:25;;;;;;;12.73;6.57;;;4.80;83.00;;;;;;5134137;27;20475;-72
2021/04/27 01:24:53;;;;;;;15.18;6.63;;;4.70;83.20;;;;;;5133526;27;20114;-72
2021/04/27 01:27:20;;;;;;;16.95;6.57;;;4.70;83.50;;;;;;5134314;27;20039;-72
2021/04/27 01:29:45;;;;;;;12.88;6.10;;;4.70;83.70;;;;;;5134219;27;20047;-72
2021/04/27 01:32:12;;;;;;;15.65;6.45;;;4.70;83.90;;;;;;5134115;27;20371;-72
2021/04/27 01:34:40;;;;;;;14.07;7.10;;;4.60;84.10;;;;;;5133473;27;20042;-72
2021/04/27 01:37:08;;;;;;;14.65;6.05;;;4.50;83.90;;;;;;5133800;27;20111;-72
2021/04/27 01:39:34;;;;;;;11.05;5.45;;;4.50;84.20;;;;;;5133873;27;20039;-72
2021/04/27 01:42:03;;;;;;;10.10;6.07;;;4.40;84.20;;;;;;5133784;27;20061;-73
2021/04/27 01:44:30;;;;;;;7.57;4.70;;;4.50;84.20;;;;;;5133321;27;20039;-73
2021/04/27 01:46:57;;;;;;;10.10;4.70;;;4.50;84.10;;;;;;5133482;27;20035;-72
2021/04/27 01:49:24;;;;;;;7.68;4.55;;;4.60;83.60;;;;;;5133848;27;20059;-72
2021/04/27 01:51:53;;;;;;;7.18;4.43;;;4.70;83.30;;;;;;5136758;27;20106;-73
2021/04/27 01:54:25;;;;;;;9.55;5.28;;;4.70;83.40;;;;;;5137468;27;20071;-73
2021/04/27 01:56:52;;;;;;;7.93;5.43;;;4.60;83.60;;;;;;5137175;27;20039;-73
2021/04/27 01:59:18;;;;;;;10.13;4.63;;;4.50;84.10;;;;;;5137762;27;20071;-72
2021/04/27 02:01:46;;;;;;;8.45;5.35;;;4.60;84.00;;;;;;5137310;27;20117;-73
2021/04/27 02:04:15;;;;;;;7.13;4.88;;;4.60;84.40;;;;;;5137009;27;20035;-73
2021/04/27 02:06:41;;;;;;;9.15;4.80;;;4.70;84.10;;;;;;5136628;27;20407;-73
2021/04/27 02:09:09;;;;;;;11.45;4.78;;;4.50;84.80;;;;;;5135770;27;20042;-73
2021/04/27 02:11:40;;;;;;;9.60;5.10;;;4.50;84.40;;;;;;5137565;27;20118;-73
2021/04/27 02:14:08;;;;;;;10.13;5.35;;;4.50;84.60;;;;;;5137161;27;20035;-73
2021/04/27 02:16:48;;;;;;;8.52;4.90;;;4.60;84.20;;;;;;5136841;27;20046;-73
2021/04/27 02:19:15;;;;;;;8.75;4.85;;;4.70;84.60;;;;;;5119377;27;20050;-73
2021/04/27 02:21:41;;;;;;;12.98;6.05;;;4.70;84.40;;;;;;5137173;27;20088;-73
2021/04/27 02:24:08;;;;;;;12.82;6.38;;;4.70;84.70;;;;;;5137114;27;20159;-73
2021/04/27 02:26:34;;;;;;;7.22;5.38;;;4.70;84.50;;;;;;5136711;27;20039;-73
2021/04/27 02:29:03;;;;;;;12.07;6.10;;;4.70;84.60;;;;;;5136607;27;20039;-72
2021/04/27 02:31:32;;;;;;;10.48;5.70;;;4.70;84.40;;;;;;5136521;27;20039;-72
2021/04/27 02:33:59;;;;;;;9.43;5.65;;;4.70;84.60;;;;;;5137088;27;20070;-72
2021/04/27 02:36:26;;;;;;;12.70;6.90;;;4.60;84.60;;;;;;5136164;27;20108;-72
2021/04/27 02:38:52;;;;;;;12.73;5.47;;;4.60;84.70;;;;;;5136873;27;20031;-73
2021/04/27 02:41:19;;;;;;;10.63;5.90;;;4.60;84.80;;;;;;5136593;27;20039;-72
2021/04/27 02:43:46;;;;;;;9.15;5.25;;;4.60;84.90;;;;;;5136570;27;20032;-72
2021/04/27 02:46:12;;;;;;;9.10;5.35;;;4.50;85.50;;;;;;5135959;27;20113;-72
2021/04/27 02:48:38;;;;;;;11.52;6.38;;;4.50;85.10;;;;;;5136311;27;20110;-72
2021/04/27 02:51:04;;;;;;;10.55;5.53;;;4.50;85.20;;;;;;5136447;27;20411;-72
2021/04/27 02:53:30;;;;;;;10.63;5.38;;;4.50;85.00;;;;;;5136614;27;20031;-72
2021/04/27 02:55:55;;;;;;;11.40;5.90;;;4.50;84.80;;;;;;5136248;27;20035;-72
2021/04/27 02:58:22;;;;;;;9.07;5.70;;;4.50;85.00;;;;;;5136233;27;20109;-72
2021/04/27 03:00:48;;;;;;;10.25;6.30;;;4.40;85.00;;;;;;5135992;27;20043;-72
2021/04/27 03:03:15;;;;;;;11.32;6.18;;;4.40;84.90;;;;;;5135638;27;20050;-72
2021/04/27 03:05:40;;;;;;;7.05;5.15;;;4.40;84.80;;;;;;5135869;27;20035;-73
2021/04/27 03:08:07;;;;;;;8.57;5.68;;;4.30;84.80;;;;;;5135805;27;20035;-72
2021/04/27 03:10:34;;;;;;;11.63;5.43;;;4.30;85.40;;;;;;5135782;27;20478;-72
2021/04/27 03:13:00;;;;;;;8.07;5.30;;;4.30;84.70;;;;;;5134770;27;20039;-72
2021/04/27 03:15:25;;;;;;;7.68;5.30;;;4.30;84.30;;;;;;5135446;27;20031;-73
2021/04/27 03:17:51;;;;;;;9.18;4.97;;;4.10;84.30;;;;;;5134603;27;20032;-72
2021/04/27 03:20:17;;;;;;;9.80;4.72;;;4.20;84.10;;;;;;5135916;27;20039;-72
2021/04/27 03:22:43;;;;;;;7.38;4.47;;;4.20;83.90;;;;;;5135981;27;20066;-72
2021/04/27 03:25:11;;;;;;;12.82;6.05;;;4.20;83.60;;;;;;5135191;27;20380;-72
2021/04/27 03:27:37;;;;;;;12.05;5.07;;;4.10;83.70;;;;;;5135488;27;20135;-72
2021/04/27 03:30:05;;;;;;;10.98;4.78;;;4.10;83.00;;;;;;5136103;27;20047;-72
2021/04/27 03:32:30;;;;;;;8.02;5.50;;;4.10;83.20;;;;;;5136033;27;20031;-72
2021/04/27 03:34:56;;;;;;;10.82;5.30;;;4.10;82.90;;;;;;5135465;27;20414;-72
2021/04/27 03:37:22;;;;;;;9.07;5.07;;;4.10;83.00;;;;;;5135925;27;20132;-72
2021/04/27 03:39:49;;;;;;;12.80;5.03;;;4.00;83.00;;;;;;5135427;27;20043;-72
2021/04/27 03:42:15;;;;;;;9.63;5.43;;;4.00;83.00;;;;;;5135706;27;20050;-72
2021/04/27 03:44:41;;;;;;;7.95;5.45;;;4.00;82.80;;;;;;5135589;27;20382;-72
2021/04/27 03:47:07;;;;;;;9.27;5.03;;;3.90;83.00;;;;;;5135311;27;20114;-72
2021/04/27 03:49:34;;;;;;;9.70;5.40;;;3.90;82.90;;;;;;5134938;27;20143;-72
2021/04/27 03:52:00;;;;;;;9.45;4.68;;;3.80;83.10;;;;;;5135152;27;20066;-72
2021/04/27 03:54:25;;;;;;;11.43;6.50;;;3.80;83.10;;;;;;5134713;27;20063;-73
2021/04/27 03:56:51;;;;;;;8.10;5.18;;;3.80;83.00;;;;;;5134827;27;20035;-72
2021/04/27 03:59:18;;;;;;;10.05;5.07;;;3.70;83.00;;;;;;5135424;27;20043;-72
2021/04/27 04:01:43;;;;;;;6.60;4.95;;;3.70;83.10;;;;;;5134849;27;20479;-72
2021/04/27 04:04:09;;;;;;;8.55;5.28;;;3.70;83.10;;;;;;5134184;27;20045;-72
2021/04/27 04:06:35;;;;;;;9.35;5.20;;;3.70;83.20;;;;;;5134583;27;20106;-72
2021/04/27 04:09:03;;;;;;;13.73;5.10;;;3.60;83.20;;;;;;5134612;27;20039;-72
2021/04/27 04:11:31;;;;;;;9.15;5.95;;;3.60;83.20;;;;;;5134173;27;20470;-72
2021/04/27 04:13:57;;;;;;;13.00;5.55;;;3.60;83.20;;;;;;5134617;27;20405;-72
2021/04/27 04:16:23;;;;;;;7.18;4.85;;;3.60;83.00;;;;;;5134363;27;20039;-72
2021/04/27 04:18:48;;;;;;;8.75;5.43;;;3.50;83.00;;;;;;5134676;27;20090;-72
2021/04/27 04:21:14;;;;;;;12.48;5.10;;;3.60;82.90;;;;;;5134685;27;20411;-72
2021/04/27 04:23:40;;;;;;;10.27;4.82;;;3.60;82.80;;;;;;5133892;27;20083;-72
2021/04/27 04:26:06;;;;;;;7.93;5.18;;;3.60;82.80;;;;;;5134183;27;20035;-72
2021/04/27 04:28:31;;;;;;;7.43;5.13;;;3.50;82.50;;;;;;5134557;27;20053;-72
2021/04/27 04:30:57;;;;;;;6.50;5.13;;;3.60;82.50;;;;;;5134550;27;20037;-72
2021/04/27 04:33:23;;;;;;;9.93;4.88;;;3.60;82.60;;;;;;5134636;27;20044;-72
2021/04/27 04:35:48;;;;;;;9.70;5.03;;;3.60;82.50;;;;;;5134343;27;20039;-72
2021/04/27 04:38:17;;;;;;;8.25;5.13;;;3.60;82.50;;;;;;5134290;27;20448;-72
2021/04/27 04:40:43;;;;;;;9.68;5.20;;;3.60;82.20;;;;;;5134359;27;20110;-72
2021/04/27 04:43:09;;;;;;;7.30;4.00;;;3.60;82.10;;;;;;5133279;27;20066;-72
2021/04/27 04:45:35;;;;;;;8.65;4.63;;;3.60;81.90;;;;;;5133929;27;20403;-72
2021/04/27 04:48:02;;;;;;;9.77;5.05;;;3.60;81.80;;;;;;5134531;27;20039;-72
2021/04/27 04:50:28;;;;;;;10.90;5.53;;;3.60;81.80;;;;;;5134633;27;20485;-72
2021/04/27 04:52:53;;;;;;;9.30;5.30;;;3.70;81.30;;;;;;5134353;27;20103;-72
2021/04/27 04:55:20;;;;;;;7.65;4.85;;;3.80;81.20;;;;;;5134229;27;20106;-72
2021/04/27 04:57:46;;;;;;;7.43;4.97;;;3.80;81.00;;;;;;5134606;27;20032;-72
2021/04/27 05:00:17;;;;;;;10.20;4.30;;;3.90;80.40;;;;;;5134205;27;20088;-72
2021/04/27 05:02:43;;;;;;;7.35;4.55;;;4.00;80.00;;;;;;5134147;27;20124;-72
2021/04/27 05:05:11;;;;;;;8.20;3.80;;;4.20;79.60;;;;;;5133732;27;20133;-72
2021/04/27 05:07:45;;;;;;;7.68;4.30;;;4.40;78.70;;;;;;5133944;27;20045;-72
2021/04/27 05:10:15;;;;;;;11.73;5.32;;;4.50;77.60;;;;;;5133916;27;20041;-72
2021/04/27 05:12:42;;;;;;;6.55;4.57;;;4.70;77.00;;;;;;5134208;27;20063;-72
2021/04/27 05:15:08;;;;;;;7.47;4.53;;;4.80;76.30;;;;;;5134012;27;20039;-72
2021/04/27 05:17:35;;;;;;;8.77;4.53;;;5.00;75.60;;;;;;5134038;27;20035;-72
2021/04/27 05:20:02;;;;;;;8.15;4.03;;;5.00;75.30;;;;;;5133326;27;20035;-72
2021/04/27 05:22:29;;;;;;;5.72;3.75;;;5.10;74.80;;;;;;5133960;27;20567;-72
2021/04/27 05:24:55;;;;;;;6.45;3.85;;;5.30;74.10;;;;;;5133855;27;20039;-72
2021/04/27 05:27:22;;;;;;;7.05;3.72;;;5.40;73.40;;;;;;5138246;27;20035;-72
2021/04/27 05:29:48;;;;;;;7.18;3.78;;;5.60;72.80;;;;;;5137867;27;20130;-72
2021/04/27 05:32:14;;;;;;;8.40;3.50;;;5.70;72.20;;;;;;5137998;27;20066;-72
2021/04/27 05:34:39;;;;;;;4.90;3.55;;;5.80;71.60;;;;;;5137372;27;20119;-72
2021/04/27 05:37:05;;;;;;;7.68;3.92;;;6.00;71.00;;;;;;5137868;27;20050;-72
2021/04/27 05:39:31;;;;;;;7.82;3.70;;;6.10;70.80;;;;;;5137469;27;20073;-73
2021/04/27 05:41:58;;;;;;;7.00;4.00;;;6.20;69.90;;;;;;5137750;27;20035;-73
2021/04/27 05:44:24;;;;;;;11.20;3.63;;;6.30;69.40;;;;;;5137721;27;20046;-73
2021/04/27 05:46:50;;;;;;;7.15;3.42;;;6.60;68.30;;;;;;5137569;27;20403;-73
2021/04/27 05:49:16;;;;;;;6.70;3.25;;;6.60;67.40;;;;;;5137999;27;20443;-73
2021/04/27 05:51:42;;;;;;;9.75;3.80;;;6.60;67.40;;;;;;5137362;27;20035;-73
2021/04/27 05:54:07;;;;;;;6.22;3.13;;;6.60;66.80;;;;;;5137372;27;20035;-73
2021/04/27 05:56:36;;;;;;;6.65;4.28;;;6.70;66.30;;;;;;5137247;27;20035;-73
2021/04/27 05:59:03;;;;;;;5.72;2.75;;;6.60;66.30;;;;;;5137455;27;20039;-73
2021/04/27 06:01:29;;;;;;;4.20;2.88;;;6.80;66.40;;;;;;5137344;27;20046;-73
2021/04/27 06:03:55;;;;;;;5.28;2.95;;;6.90;65.90;;;;;;5136112;27;20046;-73
2021/04/27 06:06:22;;;;;;;5.03;2.70;;;7.00;65.40;;;;;;5137086;27;20039;-73
2021/04/27 06:08:48;;;;;;;6.30;3.08;;;7.10;65.40;;;;;;5136999;27;20050;-73
2021/04/27 06:11:14;;;;;;;7.30;3.00;;;7.30;64.80;;;;;;5137116;27;20046;-73
2021/04/27 06:13:43;;;;;;;5.28;3.28;;;7.40;64.10;;;;;;5137491;27;20032;-73
2021/04/27 06:16:09;;;;;;;8.88;2.72;;;7.70;63.60;;;;;;5136765;27;20042;-73
2021/04/27 06:18:35;;;;;;;6.10;2.58;;;7.80;62.20;;;;;;5137594;27;20375;-73
2021/04/27 06:21:02;;;;;;;3.70;2.45;;;7.90;61.70;;;;;;5137009;27;20482;-73
2021/04/27 06:23:27;;;;;;;6.80;3.05;;;8.10;61.80;;;;;;5137075;27;20035;-73
2021/04/27 06:25:53;;;;;;;3.67;2.28;;;8.20;61.20;;;;;;5136923;27;20360;-73
2021/04/27 06:28:20;;;;;;;3.13;2.28;;;8.40;60.60;;;;;;5137352;27;20459;-73
2021/04/27 06:30:46;;;;;;;4.82;2.50;;;8.60;59.60;;;;;;5136728;27;20063;-73
2021/04/27 06:33:12;;;;;;;4.38;2.22;;;8.80;58.70;;;;;;5137224;27;20439;-73
2021/04/27 06:35:38;;;;;;;2.90;1.75;;;9.00;58.70;;;;;;5136327;27;20076;-73
2021/04/27 06:38:04;;;;;;;6.38;2.38;;;9.30;58.40;;;;;;5135447;27;20461;-73
2021/04/27 06:40:30;;;;;;;7.15;2.53;;;9.60;57.40;;;;;;5136399;27;20427;-73
2021/04/27 06:42:56;;;;;;;3.00;1.73;;;9.80;57.40;;;;;;5137186;27;20039;-73
2021/04/27 06:45:22;;;;;;;4.82;2.00;;;9.90;55.60;;;;;;5136192;27;20064;-73
2021/04/27 06:47:48;;;;;;;3.92;1.98;;;10.10;54.90;;;;;;5136930;27;20039;-73
2021/04/27 06:50:17;;;;;;;5.38;1.92;;;10.00;54.40;;;;;;5136726;27;20035;-73
2021/04/27 06:52:44;;;;;;;3.80;2.35;;;10.10;54.40;;;;;;5135090;27;20096;-74
2021/04/27 06:55:13;;;;;;;5.38;1.90;;;10.40;54.30;;;;;;5134731;27;20555;-72
2021/04/27 06:57:39;;;;;;;3.42;1.77;;;10.60;53.20;;;;;;5136652;27;20042;-72
2021/04/27 07:00:07;;;;;;;4.30;2.25;;;10.80;52.20;;;;;;5136614;27;20114;-72
2021/04/27 07:02:34;;;;;;;6.90;2.40;;;11.00;51.60;;;;;;5135897;27;20131;-72
2021/04/27 07:04:59;;;;;;;3.92;1.55;;;11.10;50.60;;;;;;5136216;27;20031;-73
2021/04/27 07:07:26;;;;;;;4.15;2.20;;;11.20;51.00;;;;;;5136158;27;20383;-73
2021/04/27 07:09:52;;;;;;;4.20;1.92;;;11.30;50.10;;;;;;5134666;27;20050;-73
2021/04/27 07:12:18;;;;;;;3.67;1.95;;;11.50;49.90;;;;;;5136327;27;20042;-73
2021/04/27 07:14:44;;;;;;;2.78;1.70;;;11.60;50.30;;;;;;5134225;27;20035;-73
2021/04/27 07:17:10;;;;;;;3.53;1.85;;;11.80;49.10;;;;;;5135928;27;20038;-73
2021/04/27 07:19:35;;;;;;;4.47;1.90;;;11.70;48.40;;;;;;5136258;27;20037;-72
2021/04/27 07:22:01;;;;;;;4.00;2.10;;;11.90;48.60;;;;;;5135968;27;20090;-73
2021/04/27 07:24:27;;;;;;;3.05;1.98;;;11.90;47.80;;;;;;5135652;27;20035;-73
2021/04/27 07:26:53;;;;;;;4.13;1.90;;;11.80;47.70;;;;;;5135526;27;20034;-73
2021/04/27 07:29:19;;;;;;;5.88;2.17;;;12.10;47.80;;;;;;5135466;27;20046;-73
2021/04/27 07:31:46;;;;;;;4.20;1.98;;;12.30;48.00;;;;;;5135626;27;20141;-73
2021/04/27 07:34:12;;;;;;;5.28;2.10;;;12.50;47.70;;;;;;5132488;27;20031;-74
2021/04/27 07:36:38;;;;;;;5.15;1.90;;;12.30;46.50;;;;;;5128430;27;20031;-74
2021/04/27 07:39:06;;;;;;;4.40;2.08;;;12.50;46.50;;;;;;5135530;27;20039;-73
2021/04/27 07:41:33;;;;;;;5.70;1.85;;;12.60;45.90;;;;;;5135569;27;20096;-73
2021/04/27 07:43:59;;;;;;;3.65;2.13;;;12.70;45.70;;;;;;5135782;27;20460;-73
2021/04/27 07:46:25;;;;;;;6.07;2.20;;;13.00;45.10;;;;;;5134860;27;20039;-73
2021/04/27 07:48:54;;;;;;;4.03;2.00;;;13.20;44.50;;;;;;5134731;27;20384;-73
2021/04/27 07:51:20;;;;;;;4.50;2.05;;;13.50;44.90;;;;;;5135441;27;20106;-73
2021/04/27 07:53:46;;;;;;;6.43;2.10;;;13.50;43.00;;;;;;5135250;27;20110;-73
2021/04/27 07:56:12;;;;;;;7.15;2.30;;;13.40;42.10;;;;;;5135017;27;20038;-73
2021/04/27 07:58:37;;;;;;;5.05;2.15;;;13.40;42.70;;;;;;5134837;27;20049;-73
2021/04/27 08:01:03;;;;;;;6.43;2.20;;;13.50;42.90;;;;;;5134847;27;20039;-73
2021/04/27 08:03:29;;;;;;;6.10;2.20;;;13.80;42.10;;;;;;5135113;27;20039;-73
2021/04/27 08:05:55;;;;;;;7.47;2.20;;;13.90;41.30;;;;;;5134377;27;20045;-73
2021/04/27 08:08:21;;;;;;;5.70;2.55;;;14.00;41.40;;;;;;5134869;27;20050;-73
2021/04/27 08:10:47;;;;;;;6.20;1.95;;;14.10;41.10;;;;;;5134861;27;20035;-73
2021/04/27 08:13:13;;;;;;;6.30;2.00;;;14.00;39.80;;;;;;5134667;27;20051;-73
2021/04/27 08:15:40;;;;;;;13.18;3.10;;;14.10;39.30;;;;;;5134772;27;20371;-73
2021/04/27 08:18:06;;;;;;;6.80;2.63;;;14.10;40.20;;;;;;5134937;27;20430;-73
2021/04/27 08:20:33;;;;;;;4.78;2.30;;;14.00;39.40;;;;;;5133353;27;20081;-73
2021/04/27 08:22:59;;;;;;;4.47;3.13;;;14.40;39.80;;;;;;5135061;27;20039;-73
2021/04/27 08:25:25;;;;;;;4.75;2.40;;;14.30;38.40;;;;;;5134257;27;20164;-73
2021/04/27 08:27:51;;;;;;;8.23;2.38;;;14.30;39.00;;;;;;5134646;27;20035;-73
2021/04/27 08:30:20;;;;;;;3.17;2.42;;;14.20;37.80;;;;;;5133066;27;20114;-73
2021/04/27 08:32:47;;;;;;;5.90;2.30;;;14.10;37.70;;;;;;5134380;27;20043;-73
2021/04/27 08:35:13;;;;;;;3.50;2.10;;;14.20;38.90;;;;;;5134191;27;20038;-71
2021/04/27 08:37:39;;;;;;;5.80;2.40;;;14.30;38.20;;;;;;5134394;27;20035;-73
2021/04/27 08:40:08;;;;;;;4.63;1.80;;;14.30;37.90;;;;;;5133993;27;20066;-71
2021/04/27 08:42:35;;;;;;;3.10;1.80;;;14.30;37.00;;;;;;5134471;27;20046;-73
2021/04/27 08:45:03;;;;;;;7.97;1.85;;;14.40;37.60;;;;;;5134027;27;20542;-73
2021/04/27 08:47:29;;;;;;;2.30;1.67;;;14.30;38.00;;;;;;5134148;27;20110;-73
2021/04/27 08:49:55;;;;;;;7.53;2.05;;;14.50;36.50;;;;;;5134693;27;20184;-72
2021/04/27 08:52:20;;;;;;;4.07;2.10;;;14.30;36.20;;;;;;5134776;27;20466;-72
2021/04/27 08:54:46;;;;;;;6.75;1.83;;;14.40;36.50;;;;;;5133854;27;20394;-73
2021/04/27 08:57:13;;;;;;;3.10;2.17;;;14.40;36.50;;;;;;5134441;27;20375;-72
2021/04/27 08:59:40;;;;;;;4.93;1.98;;;14.50;36.30;;;;;;5134143;27;20543;-73
2021/04/27 09:02:05;;;;;;;5.80;1.85;;;14.60;36.70;;;;;;5138439;27;20108;-73
2021/04/27 09:04:44;;;;;;;7.63;2.05;;;14.80;36.50;;;;;;5138120;27;20063;-73
2021/04/27 09:07:13;;;;;;;9.23;2.15;;;15.00;36.90;;;;;;5138365;27;20039;-73
2021/04/27 09:09:44;;;;;;;4.95;2.10;;;14.80;34.10;;;;;;5138970;27;20054;-72
2021/04/27 09:12:11;;;;;;;3.85;2.10;;;15.00;35.00;;;;;;5138676;27;20039;-72
2021/04/27 09:14:40;;;;;;;3.80;2.38;;;14.90;34.00;;;;;;5137544;27;20047;-73
2021/04/27 09:17:10;;;;;;;6.30;1.95;;;14.60;33.20;;;;;;5137092;27;20398;-73
2021/04/27 09:19:43;;;;;;;8.05;1.98;;;14.70;34.00;;;;;;5138607;27;20099;-73
2021/04/27 09:22:19;;;;;;;4.47;2.20;;;14.90;35.50;;;;;;5138884;27;20067;-73
2021/04/27 09:24:53;;;;;;;4.15;1.90;;;15.00;34.90;;;;;;5138046;27;20035;-73
2021/04/27 09:27:34;;;;;;;4.30;2.03;;;14.80;32.90;;;;;;5138008;27;20035;-73
2021/04/27 09:30:19;;;;;;;3.17;1.90;;;14.80;32.90;;;;;;5138370;27;20401;-73
2021/04/27 09:33:03;;;;;;;5.38;2.13;;;14.60;33.50;;;;;;5116146;28;20377;-72
2021/04/27 09:35:44;;;;;;;5.82;2.15;;;14.60;33.40;;;;;;5116463;28;20063;-73
2021/04/27 09:38:12;;;;;;;7.15;2.33;;;14.70;35.00;;;;;;5116223;28;20036;-72
2021/04/27 09:40:52;;;;;;;5.22;2.28;;;14.60;32.90;;;;;;5117724;28;20543;-73
2021/04/27 09:43:18;;;;;;;6.22;2.58;;;14.60;32.90;;;;;;5116938;28;20067;-72
2021/04/27 09:45:46;;;;;;;5.25;1.70;;;14.30;32.50;;;;;;5117185;28;20114;-72
2021/04/27 09:48:13;;;;;;;4.22;1.95;;;14.20;32.50;;;;;;5117429;27;20119;-74
2021/04/27 09:50:40;;;;;;;3.10;2.10;;;14.20;33.70;;;;;;5117476;28;20112;-72
2021/04/27 09:53:09;;;;;;;3.20;1.90;;;14.20;33.20;;;;;;5117477;28;20036;-72
2021/04/27 09:55:35;;;;;;;4.75;2.20;;;14.20;33.60;;;;;;5116552;28;20032;-73
2021/04/27 09:58:03;;;;;;;3.00;1.85;;;14.30;33.80;;;;;;5116610;28;20126;-72
2021/04/27 10:00:36;;;;;;;5.20;1.90;;;14.30;33.80;;;;;;5116939;28;20163;-72
2021/04/27 10:03:10;;;;;;;4.00;1.77;;;14.00;32.40;;;;;;5117637;28;20043;-72
2021/04/27 10:05:38;;;;;;;4.72;2.00;;;14.00;32.70;;;;;;5116634;28;20035;-73
2021/04/27 10:08:04;;;;;;;4.10;1.88;;;13.70;33.00;;;;;;5116341;28;20039;-73
2021/04/27 10:10:34;;;;;;;2.55;1.67;;;13.70;33.50;;;;;;5116614;28;20036;-72
2021/04/27 10:13:08;;;;;;;3.08;1.90;;;13.60;33.30;;;;;;5115970;28;20105;-72
2021/04/27 10:15:34;;;;;;;7.68;1.80;;;13.90;35.40;;;;;;5124831;27;20056;-73
2021/04/27 10:18:03;;;;;;;4.72;2.25;;;13.80;34.00;;;;;;5137522;27;20092;-73
2021/04/27 10:20:29;;;;;;;4.95;2.00;;;13.90;34.00;;;;;;5136865;27;20039;-73
2021/04/27 10:22:56;;;;;;;7.40;3.25;;;14.00;33.80;;;;;;5137220;27;20535;-72
2021/04/27 10:25:24;;;;;;;4.82;2.03;;;13.90;33.70;;;;;;5136384;27;20038;-75
2021/04/27 10:27:55;;;;;;;3.63;1.95;;;14.00;34.00;;;;;;5138289;27;20031;-73
2021/04/27 10:30:22;;;;;;;2.78;1.80;;;14.10;34.70;;;;;;5136469;27;20042;-73
2021/04/27 10:33:02;;;;;;;3.38;2.00;;;14.10;34.20;;;;;;5137219;27;20035;-73
2021/04/27 10:35:30;;;;;;;2.63;1.67;;;14.30;34.90;;;;;;5136457;27;20402;-73
2021/04/27 10:38:02;;;;;;;4.10;1.83;;;14.20;33.60;;;;;;5136877;27;20066;-73
2021/04/27 10:40:58;;;;;;;2.75;1.92;;;14.00;33.30;;;;;;5135603;27;20049;-73
2021/04/27 10:43:27;;;;;;;2.88;2.00;;;13.90;33.30;;;;;;5137228;27;20031;-74
2021/04/27 10:45:58;;;;;;;3.80;2.17;;;14.00;34.00;;;;;;5125231;27;20486;-73
2021/04/27 10:48:36;;;;;;;3.58;1.77;;;14.00;34.90;;;;;;5116478;27;20090;-73
2021/04/27 10:51:28;;;;;;;3.55;2.22;;;14.00;34.80;;;;;;5116301;28;20062;-73
2021/04/27 10:54:19;;;;;;;7.95;2.50;;;14.00;33.60;;;;;;5115577;28;20179;-73
2021/04/27 10:56:53;;;;;;;2.92;1.90;;;14.00;33.50;;;;;;5115368;28;20039;-73
2021/04/27 10:59:27;;;;;;;5.57;2.20;;;14.00;35.00;;;;;;5116062;28;20040;-72
2021/04/27 11:02:19;;;;;;;4.78;2.10;;;14.00;34.40;;;;;;5116141;28;20039;-73
2021/04/27 11:04:47;;;;;;;4.28;2.15;;;14.00;32.60;;;;;;5115607;28;20035;-73
2021/04/27 11:07:22;;;;;;;3.38;2.33;;;13.80;31.80;;;;;;5115533;28;20074;-73
2021/04/27 11:10:00;;;;;;;4.97;2.35;;;13.60;31.70;;;;;;5115866;28;20067;-73
2021/04/27 11:12:29;;;;;;;3.83;2.10;;;13.70;33.10;;;;;;5115164;28;20514;-73
2021/04/27 11:14:59;;;;;;;4.07;3.10;;;13.60;32.40;;;;;;5115058;28;20036;-73
2021/04/27 11:17:30;;;;;;;2.90;2.10;;;13.60;32.10;;;;;;5115211;28;20043;-73
2021/04/27 11:19:56;;;;;;;4.25;1.80;;;13.60;33.20;;;;;;5115751;28;20047;-73
2021/04/27 11:22:31;;;;;;;2.60;1.90;;;13.60;32.50;;;;;;5114998;28;20031;-73
2021/04/27 11:25:03;;;;;;;7.68;2.22;;;13.60;32.80;;;;;;5114435;28;20040;-73
2021/04/27 11:27:34;;;;;;;2.88;2.05;;;13.70;32.60;;;;;;5115598;28;20046;-73
2021/04/27 11:30:14;;;;;;;8.40;2.60;;;13.70;32.50;;;;;;5114834;28;20067;-72
2021/04/27 11:32:45;;;;;;;5.88;2.17;;;13.50;31.60;;;;;;5114964;28;20036;-72
2021/04/27 11:35:17;;;;;;;3.13;2.35;;;13.60;32.10;;;;;;5114985;28;20032;-75
2021/04/27 11:37:51;;;;;;;5.53;2.47;;;13.50;32.50;;;;;;5114758;28;20039;-72
2021/04/27 11:40:24;;;;;;;4.47;2.10;;;13.60;32.80;;;;;;5115104;28;20105;-73
2021/04/27 11:42:52;;;;;;;6.17;2.23;;;13.60;33.10;;;;;;5114889;28;20038;-73
2021/04/27 11:45:19;;;;;;;4.65;2.30;;;13.70;32.00;;;;;;5114315;28;20039;-73
2021/04/27 11:47:45;;;;;;;2.88;2.08;;;13.70;31.80;;;;;;5114597;28;20035;-73
2021/04/27 11:50:15;;;;;;;8.00;2.47;;;13.60;31.20;;;;;;5114619;28;20032;-73
2021/04/27 11:53:16;;;;;;;4.47;2.22;;;13.60;30.90;;;;;;5114736;28;20039;-73
2021/04/27 11:55:55;;;;;;;5.30;2.03;;;13.60;31.40;;;;;;5091082;28;20047;-73
2021/04/27 11:58:30;;;;;;;3.35;2.10;;;13.50;31.30;;;;;;5113996;28;20032;-73
2021/04/27 12:00:57;;;;;;;5.80;2.50;;;13.50;31.20;;;;;;5114594;28;20141;-73
2021/04/27 12:03:40;;;;;;;4.28;2.45;;;13.50;31.30;;;;;;5114468;28;20112;-73
2021/04/27 12:06:05;;;;;;;3.97;2.45;;;13.50;32.40;;;;;;5114469;28;20061;-73
2021/04/27 12:08:38;;;;;;;5.50;2.17;;;13.50;31.20;;;;;;5114276;28;20494;-73
2021/04/27 12:11:18;;;;;;;3.47;2.28;;;13.50;31.80;;;;;;5114101;28;20442;-73
2021/04/27 12:13:50;;;;;;;3.45;2.00;;;13.60;31.40;;;;;;5114707;28;20372;-73
2021/04/27 12:16:26;;;;;;;4.95;2.58;;;13.50;31.20;;;;;;5113755;28;20456;-73
2021/04/27 12:18:55;;;;;;;6.32;2.47;;;13.50;31.90;;;;;;5114791;28;20460;-72
2021/04/27 12:21:39;;;;;;;3.55;2.78;;;13.70;32.20;;;;;;5114061;28;20143;-73
2021/04/27 12:24:15;;;;;;;3.13;2.65;;;13.80;31.40;;;;;;5114570;28;20039;-73
2021/04/27 12:26:46;;;;;;;5.28;2.80;;;13.60;31.50;;;;;;5114003;28;20109;-73
2021/04/27 12:29:13;;;;;;;6.70;3.80;;;13.70;32.40;;;;;;5113969;28;20034;-73
2021/04/27 12:31:39;;;;;;;6.10;3.05;;;13.80;32.40;;;;;;5113832;28;20040;-73
2021/04/27 12:34:07;;;;;;;6.40;4.28;;;13.70;31.80;;;;;;5113819;28;20061;-73
2021/04/27 12:36:42;;;;;;;4.28;3.13;;;13.70;32.10;;;;;;5113535;28;20040;-73
2021/04/27 12:39:20;;;;;;;7.15;2.75;;;13.60;32.70;;;;;;5113965;28;20032;-73
2021/04/27 12:41:46;;;;;;;5.22;2.88;;;13.70;32.30;;;;;;5113811;28;20042;-73
2021/04/27 12:44:25;;;;;;;8.30;3.83;;;13.80;32.50;;;;;;5114066;28;20063;-73
2021/04/27 12:46:51;;;;;;;6.40;3.95;;;13.80;31.80;;;;;;5113895;28;20459;-73
2021/04/27 12:49:22;;;;;;;5.53;3.20;;;13.80;32.00;;;;;;5113607;28;20032;-73
2021/04/27 12:51:54;;;;;;;6.18;3.10;;;13.80;31.60;;;;;;5114419;28;20458;-73
2021/04/27 12:54:28;;;;;;;3.20;2.83;;;13.70;32.10;;;;;;5113489;28;20047;-73
2021/04/27 12:57:14;;;;;;;7.13;3.58;;;13.90;31.90;;;;;;5121300;28;20417;-73